Index of /wp-hr-content/uploads/2021/10/

NameLast ModifiedSize
UpParent Directory
FileADMINISTRATIVE-ASSISTANT-GOVT-WIDE-DOA181-21.pdf2021-10-26 22:33 122k
FileADMINISTRATIVE-SERVICES-OFFICER-OPEN-DOA190-21.pdf2021-10-26 22:33 127k
FileANIMAL-CONTROL-SUPERVISOR-OPEN-DOA-178-21.pdf2021-10-15 04:13 144k
FileCLERK-TYPIST-I-OPEN-DOA182-21.pdf2021-10-26 22:33 131k
FileCOMMUNICABLE-DISEASE-CONTROL-COORDINATOR-III-SUPV-DEPT-DOA183-21.pdf2021-10-26 22:33 142k
FileCOMMUNICABLE-DISEASE-INVESTIGATOR.pdf2021-10-27 23:15 118k
FileDATA-CONTROL-CLERK-I-OPEN-DOA184-21.pdf2021-10-26 22:33 116k
FileENGINEERING-AIDE-II-OPEN-DOA185-21.pdf2021-10-26 22:33 124k
FileENGINEERING-TECHNICIAN-I-DEPT-DOA186-21.pdf2021-10-26 22:33 139k
FileENVIRONMENTAL-PUBLIC-HEALTH-OFFICER-SUPERVISOR-OPEN-DOA187-21.pdf2021-10-26 22:33 162k
FileENVIRONMENTAL-TECHNICIAN-II-OPEN-DOA188-21.pdf2021-10-26 22:33 134k
FileFINAL-FY2022-DOA-Actuary-RFP-10.19.2021.pdf2021-10-18 23:53 30920k
FileFORESTER-II-OPEN-DOA189-21.pdf2021-10-26 22:33 123k
FileGENERAL-ACCOUNTING-SUPERVISOR-OPEN-DOA-179-21.pdf2021-10-12 23:44 136k
FileGovGuam-COVID-19-Testing-Sites-Updated-as-of-10-4-21.pdf2021-10-15 04:31 181k
[IMG]HR-01-1024x946.jpg2021-11-15 06:21 75k
[IMG]HR-01-1024x946.jpg.webp2021-11-15 06:21 29k
[IMG]HR-01-1080x675.jpg2021-11-15 06:21 57k
[IMG]HR-01-1080x675.jpg.webp2021-11-15 06:21 22k
[IMG]HR-01-1080x998.jpg2021-11-15 06:21 80k
[IMG]HR-01-1080x998.jpg.webp2021-11-15 06:21 31k
[IMG]HR-01-1280x1183.jpg2021-11-15 06:21 99k
[IMG]HR-01-1280x1183.jpg.webp2021-11-15 06:21 37k
[IMG]HR-01-150x150.jpg2021-11-15 06:21 6k
[IMG]HR-01-150x150.jpg.webp2021-11-15 06:21 3k
[IMG]HR-01-1536x1420.jpg2021-11-15 06:21 126k
[IMG]HR-01-1536x1420.jpg.webp2021-11-15 06:21 46k
[IMG]HR-01-2048x1893.jpg2021-11-15 06:21 186k
[IMG]HR-01-2048x1893.jpg.webp2021-11-15 06:21 66k
[IMG]HR-01-2880x1800.jpg2021-11-15 06:21 208k
[IMG]HR-01-2880x1800.jpg.webp2021-11-15 06:21 71k
[IMG]HR-01-300x277.jpg2021-11-15 06:21 14k
[IMG]HR-01-300x277.jpg.webp2021-11-15 06:21 7k
[IMG]HR-01-400x250.jpg2021-11-15 06:21 15k
[IMG]HR-01-400x250.jpg.webp2021-11-15 06:21 8k
[IMG]HR-01-400x284.jpg2021-11-15 06:21 17k
[IMG]HR-01-400x284.jpg.webp2021-11-15 06:21 8k
[IMG]HR-01-400x516.jpg2021-11-15 06:21 24k
[IMG]HR-01-400x516.jpg.webp2021-11-15 06:21 11k
[IMG]HR-01-480x444.jpg2021-11-15 06:21 27k
[IMG]HR-01-480x444.jpg.webp2021-11-15 06:21 12k
[IMG]HR-01-510x382.jpg2021-11-15 06:21 24k
[IMG]HR-01-510x382.jpg.webp2021-11-15 06:21 11k
[IMG]HR-01-768x710.jpg2021-11-15 06:21 50k
[IMG]HR-01-768x710.jpg.webp2021-11-15 06:21 21k
[IMG]HR-01-980x906.jpg2021-11-15 06:21 70k
[IMG]HR-01-980x906.jpg.webp2021-11-15 06:21 27k
[IMG]HR-01-scaled.jpg2021-11-15 06:21 245k
[IMG]HR-01-scaled.jpg.webp2021-11-15 06:21 89k
[IMG]HR-01.jpg2021-10-01 07:49 506k
FileJAMES-COOPER-NURSE-ABOVE-STEP.pdf2021-10-27 04:10 34k
FileJob-Announcement-TERRITORIAL-PARK-PATROL-RECRUIT-DOA193-21.pdf2021-10-23 08:39 137k
FileMARIANA-TURNER-NOTICE-OF-INTENT.pdf2021-10-15 04:21 29k
FileMICHAEL-RIOS-NOTICE-OF-INTENT.pdf2021-10-15 04:21 32k
FilePA-ACTION-DATE-08-19-2021-THRU-10-15-2021.pdf2021-10-18 00:48 7199k
FilePROGRAM-COORDINATOR-III-S.F.-OPEN-DOA194-21-1.pdf2021-10-27 04:16 138k
FilePROGRAM-COORDINATOR-III-S.F.-OPEN-DOA194-21.pdf2021-10-26 22:33 138k
FilePROGRAM-COORDINATOR-IV-DEPT-DOA-180-21.pdf2021-10-15 04:13 131k
FilePSYCHIATRIC-SOCIAL-WORKER-II-OPEN-DOA191-21.pdf2021-10-26 22:33 138k
FileQUALITY-CONTROL-REVIEWER-II-DEPT-DOA192-21.pdf2021-10-26 22:33 133k
Proudly Served by LiteSpeed Web Server at hr.doa.guam.gov Port 443